createdAt,value
2022-09-17T00:04:26.220Z,17.6
2022-09-17T00:10:02.128Z,17.6
2022-09-17T00:15:37.973Z,17.6
2022-09-17T00:21:13.396Z,17.5
2022-09-17T00:26:48.087Z,17.5
2022-09-17T00:32:46.004Z,17.5
2022-09-17T00:38:19.554Z,17.5
2022-09-17T00:43:54.592Z,17.5
2022-09-17T00:49:30.549Z,17.5
2022-09-17T00:55:05.371Z,17.5
2022-09-17T01:00:41.325Z,17.6
2022-09-17T01:06:19.714Z,17.6
2022-09-17T01:11:54.888Z,17.6
2022-09-17T01:17:29.914Z,17.6
2022-09-17T01:23:06.104Z,17.6
2022-09-17T01:28:40.913Z,17.6
2022-09-17T01:34:37.857Z,17.6
2022-09-17T01:40:13.110Z,17.6
2022-09-17T01:45:48.677Z,17.5
2022-09-17T01:51:23.636Z,17.5
2022-09-17T01:56:59.304Z,17.4
2022-09-17T02:02:34.090Z,17.3
2022-09-17T02:08:10.111Z,17.2
2022-09-17T02:13:46.937Z,17.2
2022-09-17T02:19:21.792Z,17.1
2022-09-17T02:24:56.767Z,17
2022-09-17T02:30:32.744Z,17
2022-09-17T02:36:07.815Z,17
2022-09-17T02:41:43.734Z,16.9
2022-09-17T02:47:19.547Z,16.8
2022-09-17T02:52:54.617Z,16.8
2022-09-17T02:58:29.419Z,16.7
2022-09-17T03:04:05.273Z,16.7
2022-09-17T03:09:40.027Z,16.6
2022-09-17T03:15:14.998Z,16.6
2022-09-17T03:20:50.707Z,16.5
2022-09-17T03:26:26.531Z,16.5
2022-09-17T03:32:23.353Z,16.5
2022-09-17T03:37:56.692Z,16.4
2022-09-17T03:43:31.289Z,16.4
2022-09-17T03:49:06.213Z,16.4
2022-09-17T03:54:43.448Z,16.3
2022-09-17T04:00:18.131Z,16.3
2022-09-17T04:05:53.014Z,16.2
2022-09-17T04:11:29.472Z,16.1
2022-09-17T04:17:05.194Z,16.1
2022-09-17T04:22:41.303Z,16.1
2022-09-17T04:28:16.816Z,16.1
2022-09-17T04:34:13.395Z,16
2022-09-17T04:39:46.392Z,16
2022-09-17T04:45:23.145Z,15.9
2022-09-17T04:50:57.895Z,15.9
2022-09-17T04:56:32.817Z,15.9
2022-09-17T05:02:09.460Z,15.8
2022-09-17T05:07:45.481Z,15.8
2022-09-17T05:13:21.386Z,15.7
2022-09-17T05:18:57.310Z,15.7
2022-09-17T05:24:32.453Z,15.6
2022-09-17T05:30:07.447Z,15.6
2022-09-17T05:35:43.664Z,15.5
2022-09-17T05:41:18.526Z,15
2022-09-17T05:46:53.422Z,13.8
2022-09-17T05:52:31.434Z,13.5
2022-09-17T05:58:06.333Z,13.4
2022-09-17T06:03:41.484Z,13.5
2022-09-17T06:09:18.312Z,13.5
2022-09-17T06:14:54.140Z,13.6
2022-09-17T06:20:29.129Z,13.5
2022-09-17T06:26:05.687Z,13.5
2022-09-17T06:32:02.617Z,13.6
2022-09-17T06:37:36.252Z,13.6
2022-09-17T06:43:11.999Z,13.6
2022-09-17T06:48:47.066Z,13.6
2022-09-17T06:54:22.226Z,13.7
2022-09-17T06:59:58.805Z,13.7
2022-09-17T07:05:33.852Z,13.9
2022-09-17T07:11:08.656Z,14
2022-09-17T07:16:44.854Z,13.8
2022-09-17T07:22:21.716Z,13.7
2022-09-17T07:27:56.854Z,13.7
2022-09-17T07:33:54.116Z,13.9
2022-09-17T07:39:27.837Z,14.4
2022-09-17T07:45:02.922Z,15
2022-09-17T07:50:38.868Z,15.7
2022-09-17T07:56:14.031Z,16.3
2022-09-17T08:01:50.355Z,16.6
2022-09-17T08:07:28.035Z,16.8
2022-09-17T08:13:02.875Z,17.1
2022-09-17T08:18:37.870Z,17.5
2022-09-17T08:24:13.549Z,17.8
2022-09-17T08:29:48.373Z,17.8
2022-09-17T08:35:23.460Z,17.7
2022-09-17T08:40:59.570Z,17.6
2022-09-17T08:46:34.467Z,17.7
2022-09-17T08:52:10.429Z,17.7
2022-09-17T08:57:46.645Z,17.4
2022-09-17T09:03:21.487Z,17.5
2022-09-17T09:08:57.738Z,17.6
2022-09-17T09:14:33.941Z,17.9
2022-09-17T09:20:09.827Z,18.2
2022-09-17T09:25:44.870Z,18.4
2022-09-17T09:31:42.552Z,18.5
2022-09-17T09:37:16.085Z,18.7
2022-09-17T09:42:50.924Z,18.7
2022-09-17T09:48:26.734Z,19
2022-09-17T09:54:01.784Z,18.9
2022-09-17T09:59:36.818Z,19.1
2022-09-17T10:05:12.959Z,19.4
2022-09-17T10:10:48.817Z,19.8
2022-09-17T10:16:23.978Z,20.2
2022-09-17T10:22:01.178Z,20.1
2022-09-17T10:27:36.184Z,21.1
2022-09-17T10:33:32.912Z,21.9
2022-09-17T10:39:06.578Z,21.8
2022-09-17T10:44:41.463Z,21.9
2022-09-17T10:50:16.634Z,22.2
2022-09-17T10:55:54.121Z,22.5
2022-09-17T11:01:29.263Z,22.9
2022-09-17T11:07:05.842Z,23.2
2022-09-17T11:12:42.287Z,22.2
2022-09-17T11:18:17.091Z,22.4
2022-09-17T11:23:52.075Z,22
2022-09-17T11:29:28.080Z,21.3
2022-09-17T11:35:02.933Z,20.9
2022-09-17T11:40:39.654Z,22
2022-09-17T11:46:18.893Z,23.7
2022-09-17T11:51:57.858Z,24.8
2022-09-17T11:57:33.855Z,25.2
2022-09-17T12:03:10.111Z,24.8
2022-09-17T12:08:45.987Z,24.2
2022-09-17T12:14:21.776Z,24.1
2022-09-17T12:19:58.042Z,23.8
2022-09-17T12:25:32.992Z,23.9
2022-09-17T12:31:08.680Z,24.5
2022-09-17T12:36:45.703Z,24.7
2022-09-17T12:42:21.149Z,25.2
2022-09-17T12:47:56.753Z,25.8
2022-09-17T12:53:32.667Z,26.4
2022-09-17T12:59:07.541Z,27.4
2022-09-17T13:05:00.308Z,28.4
2022-09-17T13:10:39.199Z,28.2
2022-09-17T13:16:15.540Z,30
2022-09-17T13:21:56.138Z,38.2
2022-09-17T13:27:33.766Z,42.2
2022-09-17T13:33:08.689Z,44.8
2022-09-17T13:38:43.759Z,41.7
2022-09-17T13:44:19.814Z,33
2022-09-17T13:49:56.196Z,30.9
2022-09-17T13:55:31.340Z,30.1
2022-09-17T14:01:07.432Z,29.8
2022-09-17T14:06:43.297Z,29.5
2022-09-17T14:12:19.533Z,29.4
2022-09-17T14:17:55.799Z,29.2
2022-09-17T14:23:34.599Z,29.1
2022-09-17T14:29:10.630Z,29
2022-09-17T14:34:47.642Z,28.9
2022-09-17T14:40:23.147Z,28.9
2022-09-17T14:46:00.933Z,28.9
2022-09-17T14:51:37.046Z,28.8
2022-09-17T14:57:11.969Z,28.7
2022-09-17T15:02:47.299Z,28.6
2022-09-17T15:08:24.558Z,28.1
2022-09-17T15:13:59.372Z,27.6
2022-09-17T15:19:34.600Z,27.3
2022-09-17T15:25:17.717Z,27
2022-09-17T15:30:52.494Z,26.7
2022-09-17T15:36:27.301Z,26.5
2022-09-17T15:42:03.940Z,26.2
2022-09-17T15:47:39.214Z,25.9
2022-09-17T15:53:14.447Z,25.6
2022-09-17T15:58:50.456Z,25.3
2022-09-17T16:04:25.399Z,24.8
2022-09-17T16:10:00.392Z,24.5
2022-09-17T16:15:37.162Z,24.1
2022-09-17T16:21:12.910Z,23.7
2022-09-17T16:26:47.783Z,23.7
2022-09-17T16:32:24.778Z,23.6
2022-09-17T16:37:59.367Z,23.4
2022-09-17T16:43:35.491Z,23.2
2022-09-17T16:49:11.193Z,23.1
2022-09-17T16:54:46.102Z,22.9
2022-09-17T17:00:21.150Z,22.5
2022-09-17T17:05:56.741Z,22.4
2022-09-17T17:11:32.621Z,22.1
2022-09-17T17:17:07.407Z,21.7
2022-09-17T17:22:44.380Z,21.3
2022-09-17T17:28:19.037Z,21
2022-09-17T17:33:53.841Z,20.8
2022-09-17T17:39:31.597Z,20.5
2022-09-17T17:45:06.478Z,20.2
2022-09-17T17:50:41.516Z,19.9
2022-09-17T17:56:17.132Z,19.6
2022-09-17T18:01:52.017Z,19.3
2022-09-17T18:07:29.868Z,19.1
2022-09-17T18:13:05.656Z,18.8
2022-09-17T18:18:44.305Z,18.7
2022-09-17T18:24:20.393Z,18.5
2022-09-17T18:29:56.897Z,18.4
2022-09-17T18:35:31.590Z,18.2
2022-09-17T18:41:06.488Z,18
2022-09-17T18:46:42.741Z,18
2022-09-17T18:52:18.547Z,18.2
2022-09-17T18:57:53.527Z,18.1
2022-09-17T19:03:29.517Z,18
2022-09-17T19:09:04.909Z,18
2022-09-17T19:14:39.619Z,18
2022-09-17T19:20:15.583Z,17.9
2022-09-17T19:25:51.668Z,17.9
2022-09-17T19:31:26.928Z,17.8
2022-09-17T19:37:04.165Z,17.7
2022-09-17T19:42:39.023Z,17.6
2022-09-17T19:48:14.871Z,17.6
2022-09-17T19:53:50.624Z,17.5
2022-09-17T19:59:26.474Z,17.4
2022-09-17T20:05:01.575Z,17.4
2022-09-17T20:10:37.508Z,17.3
2022-09-17T20:16:13.314Z,17.1
2022-09-17T20:21:49.740Z,17
2022-09-17T20:27:26.726Z,17
2022-09-17T20:33:08.383Z,17
2022-09-17T20:39:10.407Z,16.9
2022-09-17T20:45:01.465Z,16.9
2022-09-17T20:50:36.419Z,16.8
2022-09-17T20:56:11.498Z,16.8
2022-09-17T21:01:47.522Z,16.6
2022-09-17T21:07:23.197Z,16.6
2022-09-17T21:12:58.773Z,16.6
2022-09-17T21:18:39.401Z,16.6
2022-09-17T21:24:14.739Z,17
2022-09-17T21:29:49.655Z,17.1
2022-09-17T21:35:26.705Z,17.2
2022-09-17T21:41:09.454Z,17.2
2022-09-17T21:46:44.321Z,17.3
2022-09-17T21:52:21.811Z,17.3
2022-09-17T21:57:56.585Z,17.3
2022-09-17T22:03:32.526Z,17.3
2022-09-17T22:09:08.395Z,17.3
2022-09-17T22:14:43.441Z,17.2
2022-09-17T22:20:19.027Z,17.2
2022-09-17T22:25:54.773Z,17.2
2022-09-17T22:31:51.907Z,17.2
2022-09-17T22:37:24.739Z,17.1
2022-09-17T22:43:00.709Z,17.1
2022-09-17T22:48:35.404Z,17.1
2022-09-17T22:54:11.156Z,17.1
2022-09-17T22:59:48.750Z,17
2022-09-17T23:05:23.790Z,17
2022-09-17T23:10:59.056Z,17
2022-09-17T23:16:35.908Z,16.9
2022-09-17T23:22:10.588Z,16.9
2022-09-17T23:27:45.778Z,16.8
2022-09-17T23:33:43.865Z,16.8
2022-09-17T23:39:16.350Z,16.7
2022-09-17T23:44:52.216Z,16.7
2022-09-17T23:50:28.407Z,16.7
2022-09-17T23:56:03.095Z,16.7
